Time;durP1;ratioP1;P1;durP2;ratioP2;P2;SDS_P1;SDS_P2;PMS_P1;PMS_P2;Temp;Humidity;BMP_temperature;BMP_pressure;BME280_temperature;BME280_humidity;BME280_pressure;Samples;Min_cycle;Max_cycle;Signal;HPM_P1;HPM_P2
2021/04/24 00:00:56;;;;;;;12.32;5.50;;;;;;;10.01;56.67;103041.66;5033138;28;20044;-78
2021/04/24 00:03:23;;;;;;;6.25;4.30;;;;;;;10.00;56.42;103045.16;5033446;28;20490;-78
2021/04/24 00:05:58;;;;;;;9.20;4.78;;;;;;;10.03;56.27;103050.53;5033469;28;20032;-78
2021/04/24 00:08:26;;;;;;;7.43;4.60;;;;;;;9.96;56.38;103042.44;5036669;28;20032;-79
2021/04/24 00:10:54;;;;;;;9.25;4.95;;;;;;;9.95;56.86;103041.53;5017864;28;20392;-78
2021/04/24 00:13:20;;;;;;;8.93;4.82;;;;;;;9.91;56.52;103045.00;5032781;28;20500;-78
2021/04/24 00:15:47;;;;;;;10.68;5.20;;;;;;;9.87;57.02;103040.53;5035980;28;20030;-78
2021/04/24 00:18:15;;;;;;;11.63;5.45;;;;;;;9.85;56.65;103039.59;5033263;28;20025;-79
2021/04/24 00:20:42;;;;;;;10.38;4.55;;;;;;;9.82;57.16;103037.78;5032803;28;20025;-80
2021/04/24 00:23:09;;;;;;;9.50;5.10;;;;;;;9.80;57.31;103038.63;5033610;28;20480;-83
2021/04/24 00:25:36;;;;;;;9.95;4.72;;;;;;;9.77;57.52;103033.25;5032907;28;20079;-79
2021/04/24 00:28:03;;;;;;;11.90;5.97;;;;;;;9.70;57.44;103025.19;5033042;28;20047;-77
2021/04/24 00:30:30;;;;;;;12.82;5.35;;;;;;;9.69;57.49;103028.72;5033947;28;20035;-78
2021/04/24 00:32:56;;;;;;;8.48;4.72;;;;;;;9.65;57.73;103034.81;5031776;28;20040;-78
2021/04/24 00:35:23;;;;;;;11.43;5.85;;;;;;;9.62;57.71;103024.19;5014224;28;20040;-77
2021/04/24 00:37:51;;;;;;;9.00;5.63;;;;;;;9.61;58.07;103018.84;5031639;28;20056;-77
2021/04/24 00:40:19;;;;;;;10.50;5.38;;;;;;;9.58;58.02;103019.66;5031700;28;20179;-78
2021/04/24 00:42:47;;;;;;;13.38;5.13;;;;;;;9.54;57.90;103018.75;5032733;28;20484;-78
2021/04/24 00:45:16;;;;;;;14.02;6.93;;;;;;;9.51;57.37;103023.97;5032057;28;20026;-77
2021/04/24 00:47:43;;;;;;;11.02;5.53;;;;;;;9.48;57.57;103026.56;5029999;28;20079;-77
2021/04/24 00:50:11;;;;;;;11.55;6.55;;;;;;;9.45;57.32;103022.97;5035148;28;20427;-77
2021/04/24 00:52:38;;;;;;;10.32;5.43;;;;;;;9.43;57.10;103020.25;5032080;28;20427;-78
2021/04/24 00:55:05;;;;;;;11.75;6.70;;;;;;;9.43;57.16;103024.69;5032002;28;20117;-81
2021/04/24 00:57:34;;;;;;;15.20;6.82;;;;;;;9.36;57.64;103019.25;5033332;28;20554;-79
2021/04/24 01:00:00;;;;;;;13.50;6.97;;;;;;;9.31;57.51;103017.38;5032149;28;20025;-79
2021/04/24 01:02:27;;;;;;;14.13;6.35;;;;;;;9.27;57.71;103021.75;5031786;28;20029;-80
2021/04/24 01:04:53;;;;;;;16.35;6.65;;;;;;;9.25;57.18;103022.56;5032463;28;20100;-78
2021/04/24 01:07:21;;;;;;;13.60;6.95;;;;;;;9.21;57.53;103018.97;5032172;28;20022;-85
2021/04/24 01:09:48;;;;;;;11.98;5.85;;;;;;;9.21;57.25;103018.97;5033503;28;20040;-79
2021/04/24 01:12:14;;;;;;;19.10;7.00;;;;;;;9.17;57.28;103017.09;5032757;28;20026;-79
2021/04/24 01:14:40;;;;;;;14.40;6.47;;;;;;;9.14;57.32;103015.28;5029448;28;20091;-80
2021/04/24 01:17:07;;;;;;;13.55;7.35;;;;;;;9.13;57.36;103015.25;5032046;28;20737;-78
2021/04/24 01:19:34;;;;;;;14.02;6.93;;;;;;;9.10;57.42;103015.19;5034494;28;20112;-77
2021/04/24 01:22:06;;;;;;;13.68;7.45;;;;;;;9.12;57.18;103017.03;5034516;28;20021;-77
2021/04/24 01:24:33;;;;;;;13.98;7.22;;;;;;;9.05;57.32;103013.34;5031772;28;20018;-77
2021/04/24 01:27:00;;;;;;;15.85;7.95;;;;;;;8.99;57.70;103007.91;5020839;28;20020;-77
2021/04/24 01:29:27;;;;;;;13.25;6.57;;;;;;;8.97;58.04;103006.09;5031203;28;20026;-77
2021/04/24 01:31:53;;;;;;;12.63;7.60;;;;;;;8.94;57.49;103006.94;5032001;28;20025;-77
2021/04/24 01:34:20;;;;;;;10.52;7.15;;;;;;;8.93;57.98;103005.13;5031666;28;20052;-77
2021/04/24 01:36:46;;;;;;;13.15;7.20;;;;;;;8.90;58.21;103007.72;5031836;28;20378;-77
2021/04/24 01:39:13;;;;;;;15.65;8.20;;;;;;;8.88;58.29;103009.44;5031460;28;20471;-77
2021/04/24 01:41:39;;;;;;;19.25;7.20;;;;;;;8.86;57.71;103006.78;5031423;28;20072;-78
2021/04/24 01:44:06;;;;;;;13.40;7.45;;;;;;;8.85;58.04;103009.38;5031299;28;20384;-77
2021/04/24 01:46:32;;;;;;;16.80;7.35;;;;;;;8.84;57.73;103007.59;5031550;28;20029;-77
2021/04/24 01:48:59;;;;;;;15.95;7.63;;;;;;;8.81;58.39;103005.78;5031259;28;20397;-77
2021/04/24 01:51:25;;;;;;;12.90;7.13;;;;;;;8.80;58.06;103008.34;5031478;28;20477;-77
2021/04/24 01:53:54;;;;;;;16.00;7.93;;;;;;;8.80;57.93;103006.63;5031018;28;20036;-78
2021/04/24 01:56:21;;;;;;;15.10;7.82;;;;;;;8.77;58.35;103010.94;5031356;28;20026;-77
2021/04/24 01:58:47;;;;;;;13.73;7.00;;;;;;;8.73;58.55;103010.91;5033499;28;20033;-77
2021/04/24 02:01:14;;;;;;;16.40;8.70;;;;;;;8.73;58.17;103017.91;5031889;28;20124;-78
2021/04/24 02:03:41;;;;;;;16.92;8.10;;;;;;;8.72;58.11;103010.84;5034244;28;20024;-77
2021/04/24 02:06:07;;;;;;;16.40;8.98;;;;;;;8.68;58.23;103012.50;5013461;28;20021;-77
2021/04/24 02:08:41;;;;;;;16.88;8.40;;;;;;;8.71;58.27;103012.59;5031542;28;20106;-77
2021/04/24 02:11:09;;;;;;;21.83;7.43;;;;;;;8.66;58.31;103015.97;5029860;28;20030;-77
2021/04/24 02:13:40;;;;;;;14.13;7.80;;;;;;;8.64;58.89;103010.69;5031636;28;20032;-80
2021/04/24 02:16:08;;;;;;;19.70;8.70;;;;;;;8.61;58.39;103010.63;5030144;28;20030;-77
2021/04/24 02:18:34;;;;;;;12.98;7.22;;;;;;;8.57;58.99;103014.94;5036626;28;20479;-77
2021/04/24 02:21:01;;;;;;;19.30;8.52;;;;;;;8.58;58.62;103016.72;5030952;28;20026;-78
2021/04/24 02:23:40;;;;;;;18.13;8.20;;;;;;;8.61;58.89;103007.97;5031008;28;20377;-77
2021/04/24 02:26:14;;;;;;;17.13;8.55;;;;;;;8.58;58.34;103008.81;5031300;28;20088;-77
2021/04/24 02:28:44;;;;;;;18.02;8.00;;;;;;;8.55;58.64;103010.47;5031667;28;20065;-77
2021/04/24 02:31:38;;;;;;;20.35;8.77;;;;;;;8.54;58.40;103006.91;5029631;28;20091;-83
2021/04/24 02:34:05;;;;;;;16.48;9.00;;;;;;;8.52;59.00;103007.75;5028818;28;20407;-78
2021/04/24 02:36:31;;;;;;;17.33;9.20;;;;;;;8.48;59.13;103003.25;5034517;28;20030;-77
2021/04/24 02:38:59;;;;;;;17.27;8.15;;;;;;;8.50;59.23;103006.81;5034914;28;20393;-78
2021/04/24 02:41:25;;;;;;;23.25;9.07;;;;;;;8.43;59.16;103009.28;5034726;28;20025;-77
2021/04/24 02:43:52;;;;;;;23.40;8.88;;;;;;;8.42;59.04;103006.59;5018627;28;20083;-78
2021/04/24 02:46:18;;;;;;;17.00;10.02;;;;;;;8.40;58.80;103010.97;5034308;28;20033;-78
2021/04/24 02:48:44;;;;;;;17.83;8.60;;;;;;;8.36;59.13;103007.34;5037156;28;20132;-77
2021/04/24 02:51:11;;;;;;;18.42;8.60;;;;;;;8.37;59.19;103017.06;5034702;28;20037;-77
2021/04/24 02:53:37;;;;;;;19.45;9.40;;;;;;;8.34;59.04;103017.00;5037309;28;20404;-86
2021/04/24 02:56:04;;;;;;;19.52;9.10;;;;;;;8.34;58.92;103011.69;5037331;28;20120;-78
2021/04/24 02:58:30;;;;;;;23.38;9.75;;;;;;;8.33;59.71;103015.19;5034258;28;20433;-78
2021/04/24 03:00:57;;;;;;;19.65;9.15;;;;;;;8.32;59.61;103016.03;5039628;28;20067;-81
2021/04/24 03:03:23;;;;;;;25.92;9.48;;;;;;;8.30;59.14;103015.13;5034057;28;20037;-85
2021/04/24 03:05:50;;;;;;;16.63;8.70;;;;;;;8.28;59.57;103015.97;5034917;28;20097;-80
2021/04/24 03:08:17;;;;;;;21.88;8.75;;;;;;;8.28;59.81;103015.97;5034672;28;20048;-78
2021/04/24 03:10:44;;;;;;;17.95;10.23;;;;;;;8.26;59.23;103007.97;4995237;22;20063;-84
2021/04/24 03:13:11;;;;;;;25.48;9.25;;;;;;;8.27;59.24;102999.19;4973659;28;20122;-84
2021/04/24 03:15:38;;;;;;;22.17;10.23;;;;;;;8.24;59.61;103004.41;4973578;28;20023;-84
2021/04/24 03:18:05;;;;;;;15.02;9.07;;;;;;;8.24;59.75;103012.34;4973468;28;20128;-84
2021/04/24 03:20:31;;;;;;;26.80;9.75;;;;;;;8.22;59.37;103011.41;4973519;28;20050;-84
2021/04/24 03:22:59;;;;;;;17.83;8.77;;;;;;;8.22;59.74;103011.41;4973734;28;20023;-84
2021/04/24 03:25:26;;;;;;;19.80;9.50;;;;;;;8.20;59.47;103008.72;4973814;28;20398;-84
2021/04/24 03:27:53;;;;;;;21.60;9.02;;;;;;;8.16;59.81;103017.44;4973801;28;20102;-84
2021/04/24 03:30:19;;;;;;;23.23;9.45;;;;;;;8.15;59.91;103012.09;4973343;28;20038;-84
2021/04/24 03:32:46;;;;;;;20.40;9.43;;;;;;;8.14;59.88;103015.59;4973614;28;20031;-84
2021/04/24 03:35:12;;;;;;;18.75;7.95;;;;;;;8.13;59.80;103016.47;4972871;28;20022;-85
2021/04/24 03:37:39;;;;;;;21.15;10.48;;;;;;;8.12;59.60;103019.97;4973092;28;20035;-84
2021/04/24 03:40:06;;;;;;;17.27;8.85;;;;;;;8.10;60.13;103010.25;4972873;28;20022;-84
2021/04/24 03:42:33;;;;;;;20.35;8.52;;;;;;;8.09;59.94;103016.38;4973510;28;20073;-83
2021/04/24 03:44:59;;;;;;;20.58;8.35;;;;;;;8.10;59.69;103018.16;4973032;28;20076;-84
2021/04/24 03:47:27;;;;;;;18.63;9.93;;;;;;;8.07;59.72;103010.19;4972827;28;20039;-83
2021/04/24 03:49:54;;;;;;;25.05;10.27;;;;;;;8.04;60.06;103012.72;4972979;28;20042;-84
2021/04/24 03:52:20;;;;;;;17.42;9.45;;;;;;;8.00;60.13;103013.50;4972752;28;20444;-84
2021/04/24 03:54:46;;;;;;;17.70;9.25;;;;;;;7.99;60.05;103013.44;4973085;28;20519;-84
2021/04/24 03:57:13;;;;;;;21.30;8.77;;;;;;;7.97;60.25;103008.13;4972630;28;20039;-84
2021/04/24 03:59:39;;;;;;;23.63;10.52;;;;;;;7.97;60.04;103012.53;4972865;28;20038;-84
2021/04/24 04:02:06;;;;;;;22.00;9.90;;;;;;;7.94;60.19;103005.44;4972904;28;20031;-84
2021/04/24 04:04:32;;;;;;;20.13;9.45;;;;;;;7.94;60.11;103010.72;4973130;28;20080;-84
2021/04/24 04:06:58;;;;;;;20.30;8.50;;;;;;;7.93;60.17;103012.44;4973089;28;20111;-84
2021/04/24 04:09:24;;;;;;;20.42;10.40;;;;;;;7.91;59.83;103010.63;4972925;28;20043;-84
2021/04/24 04:11:50;;;;;;;23.23;9.88;;;;;;;7.87;60.24;103020.19;4972381;28;20039;-84
2021/04/24 04:14:17;;;;;;;20.00;9.70;;;;;;;7.87;60.46;103017.56;4972731;28;20377;-84
2021/04/24 04:16:43;;;;;;;20.95;9.02;;;;;;;7.82;60.21;103026.22;4972623;28;20026;-84
2021/04/24 04:19:09;;;;;;;22.17;10.18;;;;;;;7.78;59.96;103019.97;4972885;28;20375;-84
2021/04/24 04:21:36;;;;;;;18.77;10.32;;;;;;;7.76;60.48;103021.66;4972985;28;20027;-84
2021/04/24 04:24:02;;;;;;;22.73;9.70;;;;;;;7.77;60.62;103019.06;4972744;28;20046;-84
2021/04/24 04:26:28;;;;;;;19.88;9.60;;;;;;;7.75;60.44;103020.78;4972322;28;20490;-84
2021/04/24 04:28:55;;;;;;;18.98;9.45;;;;;;;7.77;60.62;103024.34;4972593;28;20026;-84
2021/04/24 04:31:22;;;;;;;26.27;10.63;;;;;;;7.77;60.50;103024.34;4972637;28;20034;-84
2021/04/24 04:33:48;;;;;;;24.50;10.60;;;;;;;7.81;60.25;103027.06;4971411;28;20037;-84
2021/04/24 04:36:14;;;;;;;21.17;9.65;;;;;;;7.81;60.15;103029.72;4973137;28;20130;-84
2021/04/24 04:38:41;;;;;;;21.63;10.63;;;;;;;7.83;60.54;103028.91;4987394;22;20122;-79
2021/04/24 04:41:08;;;;;;;28.00;11.02;;;;;;;7.81;60.46;103029.72;4971071;28;20047;-77
2021/04/24 04:43:35;;;;;;;21.67;9.52;;;;;;;7.84;60.86;103032.41;4972416;28;20038;-77
2021/04/24 04:46:01;;;;;;;20.85;9.80;;;;;;;7.84;60.50;103029.78;4971897;28;20030;-77
2021/04/24 04:48:27;;;;;;;21.55;11.00;;;;;;;7.85;61.04;103031.56;4972125;28;20031;-78
2021/04/24 04:50:54;;;;;;;29.33;11.32;;;;;;;7.88;60.80;103031.66;4972063;28;20050;-83
2021/04/24 04:53:20;;;;;;;20.85;10.38;;;;;;;7.93;61.00;103024.75;4972305;28;20031;-81
2021/04/24 04:55:46;;;;;;;20.30;10.10;;;;;;;7.96;61.09;103024.81;4972310;28;20030;-81
2021/04/24 04:58:12;;;;;;;21.15;9.93;;;;;;;8.00;60.85;103021.44;4971428;28;20065;-82
2021/04/24 05:00:39;;;;;;;21.15;9.77;;;;;;;8.07;60.61;103022.47;4971719;28;20058;-79
2021/04/24 05:03:05;;;;;;;23.50;11.55;;;;;;;8.12;60.97;103022.59;4971951;28;20019;-84
2021/04/24 05:05:31;;;;;;;18.23;9.95;;;;;;;8.17;60.55;103027.13;4971878;28;20023;-86
2021/04/24 05:07:58;;;;;;;18.80;9.70;;;;;;;8.22;60.68;103027.25;4971958;28;20034;-82
2021/04/24 05:10:26;;;;;;;20.65;9.65;;;;;;;8.28;60.59;103027.41;4972482;28;20075;-86
2021/04/24 05:12:54;;;;;;;20.20;10.10;;;;;;;8.33;60.65;103031.03;4971943;28;20058;-83
2021/04/24 05:15:21;;;;;;;22.17;10.15;;;;;;;8.38;60.65;103026.75;4971844;28;20030;-83
2021/04/24 05:17:47;;;;;;;24.23;10.57;;;;;;;8.43;60.36;103030.41;4971978;28;20127;-80
2021/04/24 05:20:15;;;;;;;24.67;9.68;;;;;;;8.50;60.57;103027.94;4970969;28;20066;-77
2021/04/24 05:22:42;;;;;;;24.33;10.80;;;;;;;8.56;60.75;103036.00;4971837;28;20034;-78
2021/04/24 05:25:09;;;;;;;21.38;9.45;;;;;;;8.61;61.03;103031.75;4972002;28;20075;-77
2021/04/24 05:27:36;;;;;;;18.95;10.13;;;;;;;8.66;60.34;103034.47;4972043;28;20038;-78
2021/04/24 05:30:04;;;;;;;21.48;9.43;;;;;;;8.73;60.57;103025.84;4971478;28;20465;-78
2021/04/24 05:32:30;;;;;;;22.10;11.63;;;;;;;8.78;60.92;103028.59;4971705;28;20151;-78
2021/04/24 05:34:56;;;;;;;19.73;9.85;;;;;;;8.80;60.67;103024.22;4970559;28;20042;-78
2021/04/24 05:37:22;;;;;;;20.52;10.07;;;;;;;8.85;60.64;103028.78;4971738;28;20047;-79
2021/04/24 05:39:49;;;;;;;18.75;9.57;;;;;;;8.89;61.00;103027.09;4971502;28;20128;-78
2021/04/24 05:42:15;;;;;;;25.15;11.70;;;;;;;8.95;60.74;103043.09;4971850;28;20041;-78
2021/04/24 05:44:41;;;;;;;26.25;9.90;;;;;;;8.99;60.90;103038.75;4970555;28;20536;-77
2021/04/24 05:47:08;;;;;;;21.27;10.43;;;;;;;9.05;60.57;103033.59;4971966;28;20539;-78
2021/04/24 05:49:34;;;;;;;25.48;11.30;;;;;;;9.11;60.72;103035.47;4971456;28;20039;-78
2021/04/24 05:52:01;;;;;;;23.85;10.52;;;;;;;9.20;60.51;103040.97;4971668;28;20435;-78
2021/04/24 05:54:28;;;;;;;24.25;10.38;;;;;;;9.26;60.93;103043.75;4971891;28;20027;-81
2021/04/24 05:56:54;;;;;;;20.02;9.65;;;;;;;9.35;60.40;103027.19;4971969;28;20058;-78
2021/04/24 05:59:20;;;;;;;18.83;9.95;;;;;;;9.44;60.24;103029.13;4972254;28;20035;-78
2021/04/24 06:01:47;;;;;;;25.27;11.63;;;;;;;9.52;60.74;103032.78;4972184;28;20031;-78
2021/04/24 06:04:13;;;;;;;21.85;11.60;;;;;;;9.61;60.56;103042.66;4971135;28;20039;-79
2021/04/24 06:06:40;;;;;;;21.02;11.10;;;;;;;9.61;60.23;103035.63;4971707;28;20034;-79
2021/04/24 06:09:07;;;;;;;21.90;10.13;;;;;;;9.71;59.98;103040.22;4971897;28;20092;-79
2021/04/24 06:11:34;;;;;;;25.20;9.75;;;;;;;9.82;60.54;103044.81;4974595;28;20027;-79
2021/04/24 06:14:02;;;;;;;18.65;11.00;;;;;;;9.91;60.27;103046.78;4973253;28;20112;-79
2021/04/24 06:16:28;;;;;;;22.00;10.70;;;;;;;9.92;59.94;103044.16;4975172;28;20033;-79
2021/04/24 06:18:55;;;;;;;20.02;9.65;;;;;;;10.02;60.17;103039.91;4974452;28;20043;-79
2021/04/24 06:21:22;;;;;;;20.63;10.82;;;;;;;10.11;59.59;103052.41;4974633;28;20120;-79
2021/04/24 06:23:48;;;;;;;18.17;9.35;;;;;;;10.19;59.56;103048.13;4974435;28;20102;-80
2021/04/24 06:26:14;;;;;;;18.60;10.27;;;;;;;10.26;59.83;103050.03;4974846;28;20031;-81
2021/04/24 06:28:41;;;;;;;20.60;9.75;;;;;;;10.35;59.26;103042.25;4974592;28;20073;-79
2021/04/24 06:31:08;;;;;;;17.88;9.85;;;;;;;10.42;59.20;103050.28;4974906;28;20023;-79
2021/04/24 06:33:34;;;;;;;16.60;9.48;;;;;;;10.50;59.39;103052.22;4974376;28;20510;-79
2021/04/24 06:36:00;;;;;;;19.45;10.25;;;;;;;10.59;59.43;103042.63;4974387;28;20057;-79
2021/04/24 06:38:26;;;;;;;17.90;8.27;;;;;;;10.63;59.06;103041.78;4974282;28;20571;-80
2021/04/24 06:40:52;;;;;;;19.92;9.13;;;;;;;10.68;59.00;103051.59;4974182;28;20436;-82
2021/04/24 06:43:19;;;;;;;16.95;8.65;;;;;;;10.64;58.98;103044.50;4974932;28;20085;-78
2021/04/24 06:45:45;;;;;;;19.98;9.38;;;;;;;10.79;58.71;103040.25;4974112;28;20124;-82
2021/04/24 06:48:11;;;;;;;17.17;8.98;;;;;;;10.88;58.78;103037.75;4974365;28;20037;-80
2021/04/24 06:50:37;;;;;;;17.55;8.40;;;;;;;10.92;58.52;103044.88;4974016;28;20104;-80
2021/04/24 06:53:04;;;;;;;14.73;8.00;;;;;;;11.05;58.47;103040.63;4974352;28;20458;-77
2021/04/24 06:55:30;;;;;;;17.77;8.15;;;;;;;11.12;58.52;103025.69;4974165;28;20126;-80
2021/04/24 06:57:57;;;;;;;18.42;8.55;;;;;;;11.24;58.44;103041.75;4973784;28;20046;-79
2021/04/24 07:00:23;;;;;;;14.77;8.15;;;;;;;11.33;58.28;103035.69;4973755;28;20101;-82
2021/04/24 07:02:50;;;;;;;13.57;8.13;;;;;;;11.40;58.15;103031.31;4973782;28;20038;-78
2021/04/24 07:05:17;;;;;;;14.98;7.60;;;;;;;11.49;58.19;103039.41;4973894;28;20114;-79
2021/04/24 07:07:44;;;;;;;18.17;7.85;;;;;;;11.55;57.92;103036.81;4973580;28;20038;-79
2021/04/24 07:10:12;;;;;;;14.88;7.45;;;;;;;11.65;57.27;103041.34;4974009;28;20364;-81
2021/04/24 07:12:38;;;;;;;15.10;7.10;;;;;;;11.74;56.97;103042.31;4972725;28;20065;-82
2021/04/24 07:15:06;;;;;;;11.48;6.63;;;;;;;11.79;57.35;103040.63;4973567;28;20019;-80
2021/04/24 07:17:33;;;;;;;14.27;7.10;;;;;;;11.76;56.29;103043.22;4973888;28;20062;-82
2021/04/24 07:19:59;;;;;;;12.35;6.75;;;;;;;11.85;56.00;103048.66;4973637;28;20031;-82
2021/04/24 07:22:26;;;;;;;14.35;7.72;;;;;;;11.94;56.09;103055.81;4973374;28;20385;-82
2021/04/24 07:24:52;;;;;;;15.50;7.47;;;;;;;12.06;55.62;103041.78;4973442;28;20118;-83
2021/04/24 07:27:18;;;;;;;14.23;8.30;;;;;;;12.13;55.36;103043.63;4973182;28;20026;-83
2021/04/24 07:29:45;;;;;;;15.07;7.22;;;;;;;12.26;55.07;103042.84;4973499;28;20092;-83
2021/04/24 07:32:11;;;;;;;11.63;7.30;;;;;;;12.34;54.73;103050.00;4973305;28;20489;-83
2021/04/24 07:34:37;;;;;;;10.43;6.43;;;;;;;12.48;54.93;103032.38;4973245;28;20485;-82
2021/04/24 07:37:03;;;;;;;11.82;7.10;;;;;;;12.64;54.36;103040.47;4973460;28;20031;-82
2021/04/24 07:39:30;;;;;;;15.35;8.50;;;;;;;12.64;54.88;103043.13;4973512;28;20516;-81
2021/04/24 07:41:56;;;;;;;12.98;6.82;;;;;;;12.68;53.85;103035.16;4975371;28;20030;-82
2021/04/24 07:44:24;;;;;;;11.65;7.00;;;;;;;12.83;53.13;103034.34;4973452;28;20031;-80
2021/04/24 07:46:52;;;;;;;12.95;6.38;;;;;;;12.95;53.46;103029.09;4973767;28;20113;-79
2021/04/24 07:49:18;;;;;;;9.73;5.78;;;;;;;13.01;53.06;103027.34;4973360;28;20096;-81
2021/04/24 07:51:45;;;;;;;11.30;5.85;;;;;;;13.05;52.69;103023.84;4973017;28;20035;-80
2021/04/24 07:54:13;;;;;;;13.00;5.50;;;;;;;13.13;52.01;103027.41;4973794;28;20462;-79
2021/04/24 07:56:41;;;;;;;8.13;4.80;;;;;;;13.27;51.63;103031.03;4972823;28;20497;-78
2021/04/24 07:59:08;;;;;;;8.52;4.18;;;;;;;13.37;51.44;103026.66;4971846;28;20089;-79
2021/04/24 08:01:37;;;;;;;7.45;4.35;;;;;;;13.39;49.60;103030.19;4972884;28;20110;-79
2021/04/24 08:04:03;;;;;;;7.68;4.03;;;;;;;13.48;49.19;103024.00;4972851;28;20054;-79
2021/04/24 08:06:30;;;;;;;6.10;3.83;;;;;;;13.64;48.35;103024.06;4972878;28;20027;-79
2021/04/24 08:08:56;;;;;;;7.47;3.65;;;;;;;13.73;47.65;103022.31;4971947;28;20113;-79
2021/04/24 08:11:22;;;;;;;7.72;4.05;;;;;;;13.77;47.92;103014.31;4971494;28;20504;-80
2021/04/24 08:13:48;;;;;;;8.07;4.18;;;;;;;13.81;47.80;103017.00;4972705;28;20058;-80
2021/04/24 08:16:15;;;;;;;6.82;4.40;;;;;;;13.97;47.62;103019.66;4972641;28;20026;-82
2021/04/24 08:18:41;;;;;;;6.43;4.60;;;;;;;14.08;47.41;103012.56;4972381;28;20066;-84
2021/04/24 08:21:08;;;;;;;48.20;24.20;;;;;;;14.15;45.92;103032.13;4972993;28;20027;-82
2021/04/24 08:23:34;;;;;;;8.18;4.30;;;;;;;14.13;45.59;103021.47;4972884;28;20401;-83
2021/04/24 08:26:00;;;;;;;6.25;3.72;;;;;;;14.19;45.19;103024.13;4972336;28;20495;-83
2021/04/24 08:28:27;;;;;;;7.45;4.15;;;;;;;14.26;45.09;103022.34;4973006;28;20042;-82
2021/04/24 08:30:53;;;;;;;5.50;3.90;;;;;;;14.22;45.29;103023.25;4972320;28;20057;-83
2021/04/24 08:33:19;;;;;;;8.70;4.28;;;;;;;14.22;44.90;103034.78;4971280;28;20397;-84
2021/04/24 08:35:45;;;;;;;6.80;3.78;;;;;;;14.35;44.95;103026.78;4972460;28;20031;-84
2021/04/24 08:38:13;;;;;;;4.53;3.45;;;;;;;14.44;45.00;103024.09;4971065;28;20038;-81
2021/04/24 08:40:39;;;;;;;8.10;4.03;;;;;;;14.49;44.62;103022.31;4971942;28;20030;-85
2021/04/24 08:43:05;;;;;;;5.70;3.40;;;;;;;14.49;44.47;103025.00;4972616;28;20031;-83
2021/04/24 08:45:33;;;;;;;6.82;4.10;;;;;;;14.48;44.06;103036.56;4967941;28;20532;-80
2021/04/24 08:47:59;;;;;;;7.10;3.83;;;;;;;14.57;43.95;103025.84;4962794;28;20467;-80
2021/04/24 08:50:28;;;;;;;6.72;4.10;;;;;;;14.52;43.74;103019.63;4956878;28;20034;-82
2021/04/24 08:52:56;;;;;;;34.47;17.73;;;;;;;14.44;43.63;103024.09;4954775;28;20414;-82
2021/04/24 08:55:24;;;;;;;11.05;6.07;;;;;;;14.56;43.85;103029.41;4959974;28;20642;-83
2021/04/24 08:57:52;;;;;;;5.68;3.95;;;;;;;14.59;43.66;103022.31;4961549;28;20059;-80
2021/04/24 09:00:23;;;;;;;8.38;4.45;;;;;;;14.64;44.03;103020.50;4961269;28;20629;-83
2021/04/24 09:02:49;;;;;;;6.78;4.30;;;;;;;14.75;43.56;103023.19;4965873;28;20031;-83
2021/04/24 09:05:19;;;;;;;6.50;4.00;;;;;;;14.88;43.24;103020.47;4967898;28;20079;-84
2021/04/24 09:07:45;;;;;;;8.75;5.18;;;;;;;14.91;43.42;103013.38;4972834;28;20038;-83
2021/04/24 09:10:16;;;;;;;7.10;4.20;;;;;;;14.91;43.00;103019.56;4967547;28;20031;-85
2021/04/24 09:12:46;;;;;;;5.50;3.47;;;;;;;15.07;41.19;103009.72;4972161;28;20048;-83
2021/04/24 09:15:23;;;;;;;7.28;2.65;;;;;;;15.15;41.78;103018.63;4974351;28;20045;-83
2021/04/24 09:23:35;;;;;;;3.47;2.22;;;;;;;15.53;39.74;103013.97;5075886;28;20467;-82
2021/04/24 09:28:44;;;;;;;3.75;2.70;;;;;;;15.49;39.90;103006.88;5106096;27;20742;-84
2021/04/24 09:31:21;;;;;;;4.32;2.58;;;;;;;15.56;39.12;103010.38;5102342;28;20024;-84
2021/04/24 09:33:50;;;;;;;4.93;2.60;;;;;;;15.50;39.87;103009.53;5106543;28;20039;-85
2021/04/24 09:36:17;;;;;;;4.25;3.00;;;;;;;15.59;40.04;103010.34;5102091;28;20383;-84
2021/04/24 09:38:47;;;;;;;3.95;2.83;;;;;;;15.63;40.02;103009.44;5106507;28;20039;-85
2021/04/24 09:46:56;;;;;;;7.85;2.60;;;;;;;15.92;37.92;103013.72;5110550;27;20363;-83
2021/04/24 09:52:09;;;;;;;6.60;2.60;;;;;;;16.06;37.69;103002.91;5074757;28;20402;-83
2021/04/24 09:57:21;;;;;;;4.72;2.85;;;;;;;16.11;36.57;102995.72;5074467;28;20441;-83
2021/04/24 09:59:55;;;;;;;7.00;2.97;;;;;;;16.27;36.90;102991.13;5060490;28;20054;-83
2021/04/24 10:02:30;;;;;;;6.85;2.92;;;;;;;16.38;36.58;102988.38;5050106;28;20029;-83
2021/04/24 10:05:17;;;;;;;6.00;2.85;;;;;;;16.60;37.24;102989.91;5049797;28;20029;-83
2021/04/24 10:07:47;;;;;;;5.28;3.13;;;;;;;16.62;37.12;102988.09;5049579;28;20021;-83
2021/04/24 10:10:16;;;;;;;4.63;2.63;;;;;;;16.69;36.57;102978.22;5049603;28;20049;-83
2021/04/24 10:13:01;;;;;;;6.35;3.35;;;;;;;16.75;37.59;102980.81;5049593;28;20025;-83
2021/04/24 10:15:37;;;;;;;6.03;3.28;;;;;;;16.79;37.42;102979.88;5048579;28;20042;-83
2021/04/24 10:18:05;;;;;;;5.93;3.92;;;;;;;16.59;38.12;102971.19;5049366;28;20072;-83
2021/04/24 10:20:33;;;;;;;7.88;4.05;;;;;;;16.58;38.10;102975.63;5049673;28;20025;-84
2021/04/24 10:23:02;;;;;;;4.45;3.17;;;;;;;16.57;38.69;102971.19;5049426;28;20494;-83
2021/04/24 10:25:29;;;;;;;5.30;3.38;;;;;;;16.65;38.13;102965.78;5049326;28;20469;-83
2021/04/24 10:27:56;;;;;;;6.22;3.33;;;;;;;16.79;38.19;102961.13;5049442;28;20025;-84
2021/04/24 10:30:23;;;;;;;5.00;3.15;;;;;;;17.00;38.06;102964.47;5049641;28;20021;-84
2021/04/24 10:32:50;;;;;;;7.15;3.10;;;;;;;17.08;37.92;102962.56;5049366;28;20034;-83
2021/04/24 10:35:16;;;;;;;9.57;3.42;;;;;;;17.11;37.46;102954.50;5049033;28;20100;-83
2021/04/24 10:37:47;;;;;;;5.82;3.50;;;;;;;17.14;37.16;102954.44;5048613;28;20029;-83
2021/04/24 10:40:14;;;;;;;5.30;3.45;;;;;;;17.09;37.38;102966.16;5063023;22;20045;-86
2021/04/24 10:42:45;;;;;;;6.22;2.97;;;;;;;17.36;37.68;102959.53;5049241;28;20056;-87
2021/04/24 10:45:12;;;;;;;5.38;3.35;;;;;;;17.46;36.91;102949.56;5048753;28;20025;-85
2021/04/24 10:50:20;;;;;;;5.10;3.15;;;;;;;17.77;36.79;102933.84;5076954;27;20406;-87
2021/04/24 10:52:47;;;;;;;4.40;3.15;;;;;;;17.97;36.44;102943.38;5055010;28;20037;-86
2021/04/24 11:06:18;;;;;;;3.70;3.03;;;;;;;18.32;34.94;102927.53;5076334;27;20166;-85
2021/04/24 11:08:48;;;;;;;8.88;3.40;;;;;;;18.20;34.13;102928.66;5055609;28;20035;-85
2021/04/24 11:11:17;;;;;;;4.65;2.70;;;;;;;18.25;33.85;102919.59;5049727;28;20030;-85
2021/04/24 11:13:47;;;;;;;4.47;2.90;;;;;;;18.21;33.20;102917.03;5049468;28;20099;-85
2021/04/24 11:16:16;;;;;;;4.97;2.80;;;;;;;18.17;34.23;102923.34;5049610;28;20029;-85
2021/04/24 11:18:45;;;;;;;5.65;3.13;;;;;;;18.19;34.20;102916.16;5049447;28;20028;-83
2021/04/24 11:23:58;;;;;;;4.45;2.78;;;;;;;18.30;34.63;102913.28;5071116;27;20390;-83
2021/04/24 11:26:48;;;;;;;4.47;2.88;;;;;;;18.58;33.90;102908.25;5070340;28;20029;-83
2021/04/24 11:29:22;;;;;;;5.38;3.22;;;;;;;18.31;33.72;102905.19;5050893;28;20025;-85
2021/04/24 11:34:42;;;;;;;3.97;2.88;;;;;;;18.46;33.63;102908.50;5110841;27;20174;-86
2021/04/24 11:40:18;;;;;;;3.78;2.70;;;;;;;18.82;32.57;102925.63;5071451;28;20437;-86
2021/04/24 11:43:05;;;;;;;6.45;3.10;;;;;;;18.92;31.99;102910.22;5063961;28;20029;-85
2021/04/24 11:51:35;;;;;;;5.53;3.03;;;;;;;19.16;31.37;102927.56;5070025;28;20986;-86
2021/04/24 11:54:06;;;;;;;6.22;2.97;;;;;;;19.06;31.98;102929.59;5069996;28;20032;-86
2021/04/24 11:56:34;;;;;;;4.70;2.70;;;;;;;19.02;32.12;102916.28;5056029;28;20037;-85
2021/04/24 11:59:00;;;;;;;7.68;2.80;;;;;;;19.23;32.39;102933.72;5067434;28;20033;-86
2021/04/24 12:01:28;;;;;;;5.18;3.08;;;;;;;19.39;32.64;102934.25;5049555;28;20420;-86
2021/04/24 12:03:55;;;;;;;4.68;2.22;;;;;;;19.59;31.97;102936.44;5049741;28;20399;-86
2021/04/24 12:06:41;;;;;;;7.78;2.90;;;;;;;19.62;31.45;102927.41;5049465;28;20538;-85
2021/04/24 12:09:14;;;;;;;7.63;3.60;;;;;;;19.54;31.75;102930.31;5050072;28;20059;-85
2021/04/24 12:11:52;;;;;;;8.68;3.00;;;;;;;19.40;32.34;102923.44;5049708;28;20045;-87